sensor_id;sensor_type;location;lat;lon;timestamp;temperature;humidity
47861;HTU21D;33620;52.340;5.984;2023-02-01T00:01:42;5.71;79.38
47861;HTU21D;33620;52.340;5.984;2023-02-01T00:04:08;5.74;79.40
47861;HTU21D;33620;52.340;5.984;2023-02-01T00:06:33;5.72;79.48
47861;HTU21D;33620;52.340;5.984;2023-02-01T00:08:58;5.72;79.59
47861;HTU21D;33620;52.340;5.984;2023-02-01T00:11:24;5.76;79.56
47861;HTU21D;33620;52.340;5.984;2023-02-01T00:13:50;5.78;79.57
47861;HTU21D;33620;52.340;5.984;2023-02-01T00:16:20;5.80;79.65
47861;HTU21D;33620;52.340;5.984;2023-02-01T00:18:48;5.81;79.66
47861;HTU21D;33620;52.340;5.984;2023-02-01T00:21:16;5.83;79.87
47861;HTU21D;33620;52.340;5.984;2023-02-01T00:23:42;5.81;79.91
47861;HTU21D;33620;52.340;5.984;2023-02-01T00:26:13;5.81;80.01
47861;HTU21D;33620;52.340;5.984;2023-02-01T00:28:39;5.82;79.95
47861;HTU21D;33620;52.340;5.984;2023-02-01T00:31:05;5.84;80.11
47861;HTU21D;33620;52.340;5.984;2023-02-01T00:33:32;5.84;80.17
47861;HTU21D;33620;52.340;5.984;2023-02-01T00:36:03;5.85;80.04
47861;HTU21D;33620;52.340;5.984;2023-02-01T00:38:33;5.87;80.12
47861;HTU21D;33620;52.340;5.984;2023-02-01T00:41:03;5.86;79.96
47861;HTU21D;33620;52.340;5.984;2023-02-01T00:43:30;5.92;80.04
47861;HTU21D;33620;52.340;5.984;2023-02-01T00:45:56;5.92;80.11
47861;HTU21D;33620;52.340;5.984;2023-02-01T00:48:21;5.92;80.16
47861;HTU21D;33620;52.340;5.984;2023-02-01T00:50:46;5.92;80.13
47861;HTU21D;33620;52.340;5.984;2023-02-01T00:53:12;5.96;80.11
47861;HTU21D;33620;52.340;5.984;2023-02-01T00:55:37;5.95;79.98
47861;HTU21D;33620;52.340;5.984;2023-02-01T00:58:03;5.99;79.94
47861;HTU21D;33620;52.340;5.984;2023-02-01T01:00:31;5.99;79.82
47861;HTU21D;33620;52.340;5.984;2023-02-01T01:02:56;6.04;79.77
47861;HTU21D;33620;52.340;5.984;2023-02-01T01:05:22;6.02;79.77
47861;HTU21D;33620;52.340;5.984;2023-02-01T01:07:47;6.07;79.69
47861;HTU21D;33620;52.340;5.984;2023-02-01T01:10:13;6.08;79.82
47861;HTU21D;33620;52.340;5.984;2023-02-01T01:12:38;6.05;79.81
47861;HTU21D;33620;52.340;5.984;2023-02-01T01:15:04;6.06;79.96
47861;HTU21D;33620;52.340;5.984;2023-02-01T01:17:31;6.07;79.95
47861;HTU21D;33620;52.340;5.984;2023-02-01T01:19:57;6.07;79.95
47861;HTU21D;33620;52.340;5.984;2023-02-01T01:22:22;6.10;80.10
47861;HTU21D;33620;52.340;5.984;2023-02-01T01:24:47;6.10;80.08
47861;HTU21D;33620;52.340;5.984;2023-02-01T01:27:13;6.10;80.01
47861;HTU21D;33620;52.340;5.984;2023-02-01T01:29:38;6.11;79.90
47861;HTU21D;33620;52.340;5.984;2023-02-01T01:32:03;6.07;79.98
47861;HTU21D;33620;52.340;5.984;2023-02-01T01:34:29;6.10;80.01
47861;HTU21D;33620;52.340;5.984;2023-02-01T01:36:54;6.07;79.75
47861;HTU21D;33620;52.340;5.984;2023-02-01T01:39:19;6.07;79.75
47861;HTU21D;33620;52.340;5.984;2023-02-01T01:41:45;6.06;79.61
47861;HTU21D;33620;52.340;5.984;2023-02-01T01:47:14;6.06;79.62
47861;HTU21D;33620;52.340;5.984;2023-02-01T01:49:40;6.07;79.61
47861;HTU21D;33620;52.340;5.984;2023-02-01T01:52:06;6.07;79.72
47861;HTU21D;33620;52.340;5.984;2023-02-01T01:54:33;6.09;79.64
47861;HTU21D;33620;52.340;5.984;2023-02-01T01:57:14;6.11;79.64
47861;HTU21D;33620;52.340;5.984;2023-02-01T01:59:49;6.08;79.66
47861;HTU21D;33620;52.340;5.984;2023-02-01T02:02:16;6.13;79.49
47861;HTU21D;33620;52.340;5.984;2023-02-01T02:04:42;6.17;79.33
47861;HTU21D;33620;52.340;5.984;2023-02-01T02:07:14;6.20;79.27
47861;HTU21D;33620;52.340;5.984;2023-02-01T02:09:41;6.22;79.11
47861;HTU21D;33620;52.340;5.984;2023-02-01T02:12:08;6.25;79.11
47861;HTU21D;33620;52.340;5.984;2023-02-01T02:14:34;6.27;79.00
47861;HTU21D;33620;52.340;5.984;2023-02-01T02:17:30;6.26;78.80
47861;HTU21D;33620;52.340;5.984;2023-02-01T02:34:18;6.54;77.64
47861;HTU21D;33620;52.340;5.984;2023-02-01T02:45:31;6.60;77.85
47861;HTU21D;33620;52.340;5.984;2023-02-01T02:48:36;6.63;78.14
47861;HTU21D;33620;52.340;5.984;2023-02-01T02:51:21;6.66;78.14
47861;HTU21D;33620;52.340;5.984;2023-02-01T02:54:18;6.67;78.62
47861;HTU21D;33620;52.340;5.984;2023-02-01T02:57:06;6.67;78.89
47861;HTU21D;33620;52.340;5.984;2023-02-01T02:59:52;6.67;79.59
47861;HTU21D;33620;52.340;5.984;2023-02-01T03:02:37;6.63;79.37
47861;HTU21D;33620;52.340;5.984;2023-02-01T03:05:21;6.59;79.67
47861;HTU21D;33620;52.340;5.984;2023-02-01T03:12:49;6.66;78.92
47861;HTU21D;33620;52.340;5.984;2023-02-01T03:18:19;6.69;78.66
47861;HTU21D;33620;52.340;5.984;2023-02-01T03:20:48;6.70;78.75
47861;HTU21D;33620;52.340;5.984;2023-02-01T03:23:16;6.69;78.61
47861;HTU21D;33620;52.340;5.984;2023-02-01T03:25:47;6.71;78.34
47861;HTU21D;33620;52.340;5.984;2023-02-01T03:28:15;6.71;78.40
47861;HTU21D;33620;52.340;5.984;2023-02-01T03:30:42;6.73;78.05
47861;HTU21D;33620;52.340;5.984;2023-02-01T03:33:13;6.76;78.04
47861;HTU21D;33620;52.340;5.984;2023-02-01T03:38:23;6.80;77.70
47861;HTU21D;33620;52.340;5.984;2023-02-01T03:40:55;6.84;77.39
47861;HTU21D;33620;52.340;5.984;2023-02-01T03:43:23;6.82;77.19
47861;HTU21D;33620;52.340;5.984;2023-02-01T03:45:54;6.82;77.50
47861;HTU21D;33620;52.340;5.984;2023-02-01T03:48:22;6.79;77.50
47861;HTU21D;33620;52.340;5.984;2023-02-01T03:50:51;6.83;77.09
47861;HTU21D;33620;52.340;5.984;2023-02-01T03:53:20;6.85;77.35
47861;HTU21D;33620;52.340;5.984;2023-02-01T03:55:47;6.83;77.39
47861;HTU21D;33620;52.340;5.984;2023-02-01T03:58:18;6.83;77.37
47861;HTU21D;33620;52.340;5.984;2023-02-01T04:00:50;6.88;77.48
47861;HTU21D;33620;52.340;5.984;2023-02-01T04:03:15;6.83;77.66
47861;HTU21D;33620;52.340;5.984;2023-02-01T04:05:41;6.88;77.58
47861;HTU21D;33620;52.340;5.984;2023-02-01T04:08:06;6.85;77.62
47861;HTU21D;33620;52.340;5.984;2023-02-01T04:10:32;6.81;77.69
47861;HTU21D;33620;52.340;5.984;2023-02-01T04:12:57;6.85;77.72
47861;HTU21D;33620;52.340;5.984;2023-02-01T04:15:23;6.81;77.65
47861;HTU21D;33620;52.340;5.984;2023-02-01T04:17:48;6.85;77.66
47861;HTU21D;33620;52.340;5.984;2023-02-01T04:20:13;6.88;77.85
47861;HTU21D;33620;52.340;5.984;2023-02-01T04:22:39;6.90;77.83
47861;HTU21D;33620;52.340;5.984;2023-02-01T04:25:05;6.89;77.79
47861;HTU21D;33620;52.340;5.984;2023-02-01T04:27:31;6.87;77.76
47861;HTU21D;33620;52.340;5.984;2023-02-01T04:29:56;6.89;77.90
47861;HTU21D;33620;52.340;5.984;2023-02-01T04:32:22;6.84;77.89
47861;HTU21D;33620;52.340;5.984;2023-02-01T04:34:47;6.87;77.89
47861;HTU21D;33620;52.340;5.984;2023-02-01T04:37:12;6.90;77.92
47861;HTU21D;33620;52.340;5.984;2023-02-01T04:39:38;6.93;77.95
47861;HTU21D;33620;52.340;5.984;2023-02-01T04:42:03;6.88;77.90
47861;HTU21D;33620;52.340;5.984;2023-02-01T04:44:29;6.86;77.65
47861;HTU21D;33620;52.340;5.984;2023-02-01T04:46:54;6.90;77.58
47861;HTU21D;33620;52.340;5.984;2023-02-01T04:49:20;6.86;77.38
47861;HTU21D;33620;52.340;5.984;2023-02-01T04:51:47;6.89;77.30
47861;HTU21D;33620;52.340;5.984;2023-02-01T04:54:12;6.91;77.11
47861;HTU21D;33620;52.340;5.984;2023-02-01T04:56:37;6.91;77.38
47861;HTU21D;33620;52.340;5.984;2023-02-01T04:59:04;6.95;77.20
47861;HTU21D;33620;52.340;5.984;2023-02-01T05:01:29;6.91;77.27
47861;HTU21D;33620;52.340;5.984;2023-02-01T05:03:55;6.88;77.05
47861;HTU21D;33620;52.340;5.984;2023-02-01T05:06:21;6.89;77.08
47861;HTU21D;33620;52.340;5.984;2023-02-01T05:08:46;6.86;77.05
47861;HTU21D;33620;52.340;5.984;2023-02-01T05:11:12;6.82;77.24
47861;HTU21D;33620;52.340;5.984;2023-02-01T05:13:58;6.83;77.17
47861;HTU21D;33620;52.340;5.984;2023-02-01T05:16:23;6.81;77.28
47861;HTU21D;33620;52.340;5.984;2023-02-01T05:18:49;6.80;77.43
47861;HTU21D;33620;52.340;5.984;2023-02-01T05:21:14;6.81;77.54
47861;HTU21D;33620;52.340;5.984;2023-02-01T05:23:40;6.81;77.57
47861;HTU21D;33620;52.340;5.984;2023-02-01T05:26:24;6.74;77.68
47861;HTU21D;33620;52.340;5.984;2023-02-01T05:28:50;6.76;77.56
47861;HTU21D;33620;52.340;5.984;2023-02-01T05:31:15;6.81;77.77
47861;HTU21D;33620;52.340;5.984;2023-02-01T05:33:41;6.80;77.98
47861;HTU21D;33620;52.340;5.984;2023-02-01T05:36:06;6.76;78.01
47861;HTU21D;33620;52.340;5.984;2023-02-01T05:38:32;6.75;78.01
47861;HTU21D;33620;52.340;5.984;2023-02-01T05:40:57;6.82;78.07
47861;HTU21D;33620;52.340;5.984;2023-02-01T05:43:23;6.79;78.10
47861;HTU21D;33620;52.340;5.984;2023-02-01T05:45:48;6.81;77.91
47861;HTU21D;33620;52.340;5.984;2023-02-01T05:48:14;6.85;77.91
47861;HTU21D;33620;52.340;5.984;2023-02-01T05:50:39;6.85;78.03
47861;HTU21D;33620;52.340;5.984;2023-02-01T05:53:05;6.83;78.08
47861;HTU21D;33620;52.340;5.984;2023-02-01T05:55:31;6.88;78.11
47861;HTU21D;33620;52.340;5.984;2023-02-01T05:57:56;6.86;78.18
47861;HTU21D;33620;52.340;5.984;2023-02-01T06:00:22;6.89;78.05
47861;HTU21D;33620;52.340;5.984;2023-02-01T06:02:48;6.88;77.95
47861;HTU21D;33620;52.340;5.984;2023-02-01T06:05:13;6.86;77.98
47861;HTU21D;33620;52.340;5.984;2023-02-01T06:07:38;6.87;77.89
47861;HTU21D;33620;52.340;5.984;2023-02-01T06:10:04;6.86;77.99
47861;HTU21D;33620;52.340;5.984;2023-02-01T06:12:29;6.94;78.21
47861;HTU21D;33620;52.340;5.984;2023-02-01T06:14:55;6.90;78.18
47861;HTU21D;33620;52.340;5.984;2023-02-01T06:17:20;6.90;78.13
47861;HTU21D;33620;52.340;5.984;2023-02-01T06:19:46;6.87;78.34
47861;HTU21D;33620;52.340;5.984;2023-02-01T06:22:13;6.89;78.33
47861;HTU21D;33620;52.340;5.984;2023-02-01T06:24:39;6.89;78.50
47861;HTU21D;33620;52.340;5.984;2023-02-01T06:27:06;6.85;78.73
47861;HTU21D;33620;52.340;5.984;2023-02-01T06:29:32;6.82;78.70
47861;HTU21D;33620;52.340;5.984;2023-02-01T06:31:57;6.86;78.68
47861;HTU21D;33620;52.340;5.984;2023-02-01T06:34:23;6.88;78.60
47861;HTU21D;33620;52.340;5.984;2023-02-01T06:36:49;6.87;78.62
47861;HTU21D;33620;52.340;5.984;2023-02-01T06:39:14;6.90;78.43
47861;HTU21D;33620;52.340;5.984;2023-02-01T06:41:42;6.91;78.31
47861;HTU21D;33620;52.340;5.984;2023-02-01T06:44:08;6.94;78.41
47861;HTU21D;33620;52.340;5.984;2023-02-01T06:46:33;6.89;78.47
47861;HTU21D;33620;52.340;5.984;2023-02-01T06:48:59;6.94;78.21
47861;HTU21D;33620;52.340;5.984;2023-02-01T06:51:26;6.95;78.37
47861;HTU21D;33620;52.340;5.984;2023-02-01T06:53:52;6.94;78.12
47861;HTU21D;33620;52.340;5.984;2023-02-01T06:56:18;6.90;78.30
47861;HTU21D;33620;52.340;5.984;2023-02-01T06:58:43;6.94;77.82
47861;HTU21D;33620;52.340;5.984;2023-02-01T07:01:10;6.95;77.92
47861;HTU21D;33620;52.340;5.984;2023-02-01T07:03:36;6.93;77.62
47861;HTU21D;33620;52.340;5.984;2023-02-01T07:06:02;6.96;77.72
47861;HTU21D;33620;52.340;5.984;2023-02-01T07:08:28;6.95;77.79
47861;HTU21D;33620;52.340;5.984;2023-02-01T07:10:54;6.94;78.10
47861;HTU21D;33620;52.340;5.984;2023-02-01T07:13:19;6.95;77.78
47861;HTU21D;33620;52.340;5.984;2023-02-01T07:15:45;6.96;78.05
47861;HTU21D;33620;52.340;5.984;2023-02-01T07:18:13;6.94;78.01
47861;HTU21D;33620;52.340;5.984;2023-02-01T07:20:39;6.95;78.26
47861;HTU21D;33620;52.340;5.984;2023-02-01T07:23:05;6.94;78.34
47861;HTU21D;33620;52.340;5.984;2023-02-01T07:25:30;6.95;78.59
47861;HTU21D;33620;52.340;5.984;2023-02-01T07:27:55;6.90;78.67
47861;HTU21D;33620;52.340;5.984;2023-02-01T07:30:21;6.90;78.68
47861;HTU21D;33620;52.340;5.984;2023-02-01T07:32:46;6.86;78.86
47861;HTU21D;33620;52.340;5.984;2023-02-01T07:35:12;6.90;79.07
47861;HTU21D;33620;52.340;5.984;2023-02-01T07:37:37;6.90;79.14
47861;HTU21D;33620;52.340;5.984;2023-02-01T07:40:03;6.86;79.37
47861;HTU21D;33620;52.340;5.984;2023-02-01T07:42:28;6.84;79.46
47861;HTU21D;33620;52.340;5.984;2023-02-01T07:44:53;6.80;79.59
47861;HTU21D;33620;52.340;5.984;2023-02-01T07:47:19;6.80;79.59
47861;HTU21D;33620;52.340;5.984;2023-02-01T07:49:45;6.80;79.52
47861;HTU21D;33620;52.340;5.984;2023-02-01T07:52:10;6.79;79.62
47861;HTU21D;33620;52.340;5.984;2023-02-01T07:54:38;6.80;79.79
47861;HTU21D;33620;52.340;5.984;2023-02-01T07:57:03;6.74;79.78
47861;HTU21D;33620;52.340;5.984;2023-02-01T07:59:28;6.76;79.76
47861;HTU21D;33620;52.340;5.984;2023-02-01T08:01:54;6.76;79.84
47861;HTU21D;33620;52.340;5.984;2023-02-01T08:04:19;6.79;79.69
47861;HTU21D;33620;52.340;5.984;2023-02-01T08:06:45;6.81;79.65
47861;HTU21D;33620;52.340;5.984;2023-02-01T08:09:10;6.84;79.85
47861;HTU21D;33620;52.340;5.984;2023-02-01T08:11:36;6.79;79.91
47861;HTU21D;33620;52.340;5.984;2023-02-01T08:14:03;6.82;79.55
47861;HTU21D;33620;52.340;5.984;2023-02-01T08:16:29;6.81;79.67
47861;HTU21D;33620;52.340;5.984;2023-02-01T08:18:54;6.80;79.82
47861;HTU21D;33620;52.340;5.984;2023-02-01T08:21:23;6.85;79.56
47861;HTU21D;33620;52.340;5.984;2023-02-01T08:23:49;6.90;79.50
47861;HTU21D;33620;52.340;5.984;2023-02-01T08:26:19;6.89;79.38
47861;HTU21D;33620;52.340;5.984;2023-02-01T08:28:47;6.97;79.09
47861;HTU21D;33620;52.340;5.984;2023-02-01T08:31:18;7.04;79.11
47861;HTU21D;33620;52.340;5.984;2023-02-01T08:33:47;7.01;78.96
47861;HTU21D;33620;52.340;5.984;2023-02-01T08:36:13;7.05;78.76
47861;HTU21D;33620;52.340;5.984;2023-02-01T08:38:39;7.03;78.89
47861;HTU21D;33620;52.340;5.984;2023-02-01T08:41:13;7.01;79.09
47861;HTU21D;33620;52.340;5.984;2023-02-01T08:43:39;7.01;79.04
47861;HTU21D;33620;52.340;5.984;2023-02-01T08:46:06;7.05;78.95
47861;HTU21D;33620;52.340;5.984;2023-02-01T08:48:32;7.10;79.04
47861;HTU21D;33620;52.340;5.984;2023-02-01T08:51:04;7.08;79.25
47861;HTU21D;33620;52.340;5.984;2023-02-01T08:53:30;7.02;79.11
47861;HTU21D;33620;52.340;5.984;2023-02-01T08:55:55;7.09;79.43
47861;HTU21D;33620;52.340;5.984;2023-02-01T08:58:21;7.07;79.28
47861;HTU21D;33620;52.340;5.984;2023-02-01T09:00:47;7.10;79.43
47861;HTU21D;33620;52.340;5.984;2023-02-01T09:03:13;7.12;79.17
47861;HTU21D;33620;52.340;5.984;2023-02-01T09:05:38;7.19;79.37
47861;HTU21D;33620;52.340;5.984;2023-02-01T09:08:04;7.24;79.30
47861;HTU21D;33620;52.340;5.984;2023-02-01T09:10:30;7.25;79.27
47861;HTU21D;33620;52.340;5.984;2023-02-01T09:12:55;7.17;79.01
47861;HTU21D;33620;52.340;5.984;2023-02-01T09:15:21;7.19;78.67
47861;HTU21D;33620;52.340;5.984;2023-02-01T09:17:46;7.29;78.92
47861;HTU21D;33620;52.340;5.984;2023-02-01T09:20:12;7.29;78.59
47861;HTU21D;33620;52.340;5.984;2023-02-01T09:22:38;7.32;79.08
47861;HTU21D;33620;52.340;5.984;2023-02-01T09:25:04;7.29;78.38
47861;HTU21D;33620;52.340;5.984;2023-02-01T09:27:29;7.28;78.45
47861;HTU21D;33620;52.340;5.984;2023-02-01T09:29:54;7.30;78.22
47861;HTU21D;33620;52.340;5.984;2023-02-01T09:32:20;7.35;78.40
47861;HTU21D;33620;52.340;5.984;2023-02-01T09:34:47;7.29;78.10
47861;HTU21D;33620;52.340;5.984;2023-02-01T09:37:12;7.31;78.67
47861;HTU21D;33620;52.340;5.984;2023-02-01T09:39:38;7.29;78.85
47861;HTU21D;33620;52.340;5.984;2023-02-01T09:42:23;7.29;78.88
47861;HTU21D;33620;52.340;5.984;2023-02-01T09:44:59;7.30;78.77
47861;HTU21D;33620;52.340;5.984;2023-02-01T09:47:27;7.30;78.95
47861;HTU21D;33620;52.340;5.984;2023-02-01T09:50:04;7.26;79.30
47861;HTU21D;33620;52.340;5.984;2023-02-01T09:55:38;7.27;78.85
47861;HTU21D;33620;52.340;5.984;2023-02-01T09:58:14;7.20;78.71
47861;HTU21D;33620;52.340;5.984;2023-02-01T10:00:48;7.23;80.07
47861;HTU21D;33620;52.340;5.984;2023-02-01T10:03:15;7.13;79.99
47861;HTU21D;33620;52.340;5.984;2023-02-01T10:06:47;7.08;82.04
47861;HTU21D;33620;52.340;5.984;2023-02-01T10:20:20;6.63;86.06
47861;HTU21D;33620;52.340;5.984;2023-02-01T10:25:44;6.60;86.29
47861;HTU21D;33620;52.340;5.984;2023-02-01T10:28:15;6.63;87.21
47861;HTU21D;33620;52.340;5.984;2023-02-01T10:30:46;6.58;87.24
47861;HTU21D;33620;52.340;5.984;2023-02-01T10:33:24;6.46;87.06
47861;HTU21D;33620;52.340;5.984;2023-02-01T10:35:58;6.51;88.12
47861;HTU21D;33620;52.340;5.984;2023-02-01T10:38:29;6.49;88.71
47861;HTU21D;33620;52.340;5.984;2023-02-01T10:41:13;6.48;89.07
47861;HTU21D;33620;52.340;5.984;2023-02-01T10:43:40;6.39;89.24
47861;HTU21D;33620;52.340;5.984;2023-02-01T10:46:07;6.31;89.52
47861;HTU21D;33620;52.340;5.984;2023-02-01T10:48:33;6.30;89.47
47861;HTU21D;33620;52.340;5.984;2023-02-01T10:51:10;6.30;89.13
47861;HTU21D;33620;52.340;5.984;2023-02-01T10:53:50;6.33;89.37
47861;HTU21D;33620;52.340;5.984;2023-02-01T10:56:26;6.34;89.65
47861;HTU21D;33620;52.340;5.984;2023-02-01T10:59:03;6.26;89.03
47861;HTU21D;33620;52.340;5.984;2023-02-01T11:01:37;6.38;88.90
47861;HTU21D;33620;52.340;5.984;2023-02-01T11:04:05;6.45;89.21
47861;HTU21D;33620;52.340;5.984;2023-02-01T11:06:40;6.44;88.36
47861;HTU21D;33620;52.340;5.984;2023-02-01T11:09:10;6.50;88.51
47861;HTU21D;33620;52.340;5.984;2023-02-01T11:14:16;6.52;87.54
47861;HTU21D;33620;52.340;5.984;2023-02-01T11:16:48;6.57;87.22
47861;HTU21D;33620;52.340;5.984;2023-02-01T11:19:15;6.61;87.55
47861;HTU21D;33620;52.340;5.984;2023-02-01T11:21:42;6.64;87.14
47861;HTU21D;33620;52.340;5.984;2023-02-01T11:24:21;6.68;86.82
47861;HTU21D;33620;52.340;5.984;2023-02-01T11:26:47;6.71;85.60
47861;HTU21D;33620;52.340;5.984;2023-02-01T11:29:17;6.79;85.27
47861;HTU21D;33620;52.340;5.984;2023-02-01T11:31:45;6.81;85.04
47861;HTU21D;33620;52.340;5.984;2023-02-01T11:34:17;6.86;85.21
47861;HTU21D;33620;52.340;5.984;2023-02-01T11:36:45;6.87;84.77
47861;HTU21D;33620;52.340;5.984;2023-02-01T11:42:17;6.97;84.20
47861;HTU21D;33620;52.340;5.984;2023-02-01T11:44:44;6.99;83.21
47861;HTU21D;33620;52.340;5.984;2023-02-01T11:47:38;7.09;83.19
47861;HTU21D;33620;52.340;5.984;2023-02-01T11:50:13;7.13;82.17
47861;HTU21D;33620;52.340;5.984;2023-02-01T11:55:21;7.34;81.80
47861;HTU21D;33620;52.340;5.984;2023-02-01T11:57:59;7.41;81.92
47861;HTU21D;33620;52.340;5.984;2023-02-01T12:03:19;7.46;81.75
47861;HTU21D;33620;52.340;5.984;2023-02-01T12:08:29;7.45;82.47
47861;HTU21D;33620;52.340;5.984;2023-02-01T12:16:40;7.39;84.23
47861;HTU21D;33620;52.340;5.984;2023-02-01T12:21:54;7.42;83.40
47861;HTU21D;33620;52.340;5.984;2023-02-01T12:30:10;7.49;82.43
47861;HTU21D;33620;52.340;5.984;2023-02-01T12:32:51;7.54;81.96
47861;HTU21D;33620;52.340;5.984;2023-02-01T12:35:33;7.64;82.07
47861;HTU21D;33620;52.340;5.984;2023-02-01T12:38:25;7.63;81.64
47861;HTU21D;33620;52.340;5.984;2023-02-01T12:44:03;7.70;81.43
47861;HTU21D;33620;52.340;5.984;2023-02-01T12:49:21;7.72;81.30
47861;HTU21D;33620;52.340;5.984;2023-02-01T12:51:54;7.74;81.36
47861;HTU21D;33620;52.340;5.984;2023-02-01T12:54:34;7.70;80.78
47861;HTU21D;33620;52.340;5.984;2023-02-01T12:57:04;7.75;80.66
47861;HTU21D;33620;52.340;5.984;2023-02-01T12:59:42;7.73;80.53
47861;HTU21D;33620;52.340;5.984;2023-02-01T13:02:30;7.72;81.20
47861;HTU21D;33620;52.340;5.984;2023-02-01T13:05:21;7.67;81.79
47861;HTU21D;33620;52.340;5.984;2023-02-01T13:08:05;7.64;82.29
47861;HTU21D;33620;52.340;5.984;2023-02-01T13:10:47;7.58;82.81
47861;HTU21D;33620;52.340;5.984;2023-02-01T13:16:06;7.50;84.25
47861;HTU21D;33620;52.340;5.984;2023-02-01T13:18:41;7.43;84.59
47861;HTU21D;33620;52.340;5.984;2023-02-01T13:21:24;7.41;85.94
47861;HTU21D;33620;52.340;5.984;2023-02-01T13:23:52;7.43;85.99
47861;HTU21D;33620;52.340;5.984;2023-02-01T13:26:17;7.41;86.43
47861;HTU21D;33620;52.340;5.984;2023-02-01T13:28:52;7.34;86.90
47861;HTU21D;33620;52.340;5.984;2023-02-01T13:42:48;7.43;85.09
47861;HTU21D;33620;52.340;5.984;2023-02-01T13:45:17;7.49;84.92
47861;HTU21D;33620;52.340;5.984;2023-02-01T13:47:47;7.46;84.05
47861;HTU21D;33620;52.340;5.984;2023-02-01T13:50:21;7.58;84.63
47861;HTU21D;33620;52.340;5.984;2023-02-01T13:52:54;7.56;84.27
47861;HTU21D;33620;52.340;5.984;2023-02-01T13:57:46;7.68;83.68
47861;HTU21D;33620;52.340;5.984;2023-02-01T14:00:36;7.72;83.58
47861;HTU21D;33620;52.340;5.984;2023-02-01T14:03:07;7.78;82.68
47861;HTU21D;33620;52.340;5.984;2023-02-01T14:05:54;7.77;82.20
47861;HTU21D;33620;52.340;5.984;2023-02-01T14:08:24;7.81;81.49
47861;HTU21D;33620;52.340;5.984;2023-02-01T14:11:00;7.82;81.91
47861;HTU21D;33620;52.340;5.984;2023-02-01T14:13:39;7.88;81.80
47861;HTU21D;33620;52.340;5.984;2023-02-01T14:23:54;7.90;81.59
47861;HTU21D;33620;52.340;5.984;2023-02-01T14:26:26;7.85;81.59
47861;HTU21D;33620;52.340;5.984;2023-02-01T14:32:19;7.93;81.43
47861;HTU21D;33620;52.340;5.984;2023-02-01T14:44:51;8.00;81.01
47861;HTU21D;33620;52.340;5.984;2023-02-01T14:50:10;8.03;81.10
47861;HTU21D;33620;52.340;5.984;2023-02-01T14:52:39;8.07;81.16
47861;HTU21D;33620;52.340;5.984;2023-02-01T14:55:24;8.04;80.27
47861;HTU21D;33620;52.340;5.984;2023-02-01T14:57:53;8.13;81.00
47861;HTU21D;33620;52.340;5.984;2023-02-01T15:00:24;8.13;81.06
47861;HTU21D;33620;52.340;5.984;2023-02-01T15:02:51;8.12;81.36
47861;HTU21D;33620;52.340;5.984;2023-02-01T15:05:33;8.04;81.37
47861;HTU21D;33620;52.340;5.984;2023-02-01T15:08:13;8.04;81.17
47861;HTU21D;33620;52.340;5.984;2023-02-01T15:10:44;8.11;81.36
47861;HTU21D;33620;52.340;5.984;2023-02-01T15:13:27;8.08;81.42
47861;HTU21D;33620;52.340;5.984;2023-02-01T15:16:13;8.09;81.54
47861;HTU21D;33620;52.340;5.984;2023-02-01T15:18:39;8.11;81.10
47861;HTU21D;33620;52.340;5.984;2023-02-01T15:21:06;8.05;80.83
47861;HTU21D;33620;52.340;5.984;2023-02-01T15:23:33;8.13;81.18
47861;HTU21D;33620;52.340;5.984;2023-02-01T15:25:58;8.09;80.85
47861;HTU21D;33620;52.340;5.984;2023-02-01T15:28:27;8.12;80.76
47861;HTU21D;33620;52.340;5.984;2023-02-01T15:33:26;8.11;79.85
47861;HTU21D;33620;52.340;5.984;2023-02-01T15:38:39;8.02;81.42
47861;HTU21D;33620;52.340;5.984;2023-02-01T15:46:33;7.31;84.84
47861;HTU21D;33620;52.340;5.984;2023-02-01T15:49:00;7.25;86.17
47861;HTU21D;33620;52.340;5.984;2023-02-01T15:51:28;7.23;86.68
47861;HTU21D;33620;52.340;5.984;2023-02-01T15:54:04;7.17;86.75
47861;HTU21D;33620;52.340;5.984;2023-02-01T15:56:36;7.15;87.12
47861;HTU21D;33620;52.340;5.984;2023-02-01T15:59:21;7.05;87.52
47861;HTU21D;33620;52.340;5.984;2023-02-01T16:01:48;7.03;87.61
47861;HTU21D;33620;52.340;5.984;2023-02-01T16:04:18;7.01;87.72
47861;HTU21D;33620;52.340;5.984;2023-02-01T16:06:50;6.94;88.52
47861;HTU21D;33620;52.340;5.984;2023-02-01T16:09:24;6.95;88.75
47861;HTU21D;33620;52.340;5.984;2023-02-01T16:11:57;6.96;88.65
47861;HTU21D;33620;52.340;5.984;2023-02-01T16:14:24;6.94;88.95
47861;HTU21D;33620;52.340;5.984;2023-02-01T16:16:51;6.95;89.02
47861;HTU21D;33620;52.340;5.984;2023-02-01T16:19:17;6.98;89.03
47861;HTU21D;33620;52.340;5.984;2023-02-01T16:21:43;6.97;89.13
47861;HTU21D;33620;52.340;5.984;2023-02-01T16:24:08;6.91;89.25
47861;HTU21D;33620;52.340;5.984;2023-02-01T16:26:34;6.88;89.52
47861;HTU21D;33620;52.340;5.984;2023-02-01T16:29:00;6.86;89.50
47861;HTU21D;33620;52.340;5.984;2023-02-01T16:31:30;6.85;89.45
47861;HTU21D;33620;52.340;5.984;2023-02-01T16:33:56;6.82;89.55
47861;HTU21D;33620;52.340;5.984;2023-02-01T16:36:22;6.84;89.54
47861;HTU21D;33620;52.340;5.984;2023-02-01T16:38:48;6.91;89.44
47861;HTU21D;33620;52.340;5.984;2023-02-01T16:41:18;6.95;89.40
47861;HTU21D;33620;52.340;5.984;2023-02-01T16:43:44;6.97;89.49
47861;HTU21D;33620;52.340;5.984;2023-02-01T16:46:15;6.98;89.62
47861;HTU21D;33620;52.340;5.984;2023-02-01T16:48:44;7.02;89.46
47861;HTU21D;33620;52.340;5.984;2023-02-01T16:51:12;7.08;89.25
47861;HTU21D;33620;52.340;5.984;2023-02-01T16:53:39;7.12;88.59
47861;HTU21D;33620;52.340;5.984;2023-02-01T16:56:14;7.25;88.12
47861;HTU21D;33620;52.340;5.984;2023-02-01T16:58:40;7.31;87.54
47861;HTU21D;33620;52.340;5.984;2023-02-01T17:01:08;7.34;86.93
47861;HTU21D;33620;52.340;5.984;2023-02-01T17:03:34;7.42;86.64
47861;HTU21D;33620;52.340;5.984;2023-02-01T17:05:59;7.46;86.41
47861;HTU21D;33620;52.340;5.984;2023-02-01T17:08:34;7.46;85.99
47861;HTU21D;33620;52.340;5.984;2023-02-01T17:10:59;7.53;86.08
47861;HTU21D;33620;52.340;5.984;2023-02-01T17:13:26;7.54;87.32
47861;HTU21D;33620;52.340;5.984;2023-02-01T17:15:58;7.26;85.32
47861;HTU21D;33620;52.340;5.984;2023-02-01T17:18:24;7.24;85.29
47861;HTU21D;33620;52.340;5.984;2023-02-01T17:20:50;7.23;86.48
47861;HTU21D;33620;52.340;5.984;2023-02-01T17:23:18;7.18;86.86
47861;HTU21D;33620;52.340;5.984;2023-02-01T17:25:44;7.05;88.07
47861;HTU21D;33620;52.340;5.984;2023-02-01T17:28:09;7.10;88.54
47861;HTU21D;33620;52.340;5.984;2023-02-01T17:30:36;7.01;88.31
47861;HTU21D;33620;52.340;5.984;2023-02-01T17:33:02;7.01;88.29
47861;HTU21D;33620;52.340;5.984;2023-02-01T17:35:28;7.04;88.60
47861;HTU21D;33620;52.340;5.984;2023-02-01T17:37:55;7.05;88.31
47861;HTU21D;33620;52.340;5.984;2023-02-01T17:40:20;7.11;88.40
47861;HTU21D;33620;52.340;5.984;2023-02-01T17:42:46;7.11;88.09
47861;HTU21D;33620;52.340;5.984;2023-02-01T17:45:39;7.12;88.43
47861;HTU21D;33620;52.340;5.984;2023-02-01T17:48:07;7.15;88.47
47861;HTU21D;33620;52.340;5.984;2023-02-01T17:50:36;7.14;88.44
47861;HTU21D;33620;52.340;5.984;2023-02-01T17:53:02;7.17;88.50
47861;HTU21D;33620;52.340;5.984;2023-02-01T17:55:28;7.15;88.61
47861;HTU21D;33620;52.340;5.984;2023-02-01T17:57:53;7.15;88.57
47861;HTU21D;33620;52.340;5.984;2023-02-01T18:00:19;7.16;88.38
47861;HTU21D;33620;52.340;5.984;2023-02-01T18:02:45;7.20;88.50